sensor_id;sensor_type;location;lat;lon;timestamp;P1;durP1;ratioP1;P2;durP2;ratioP2
7753;SDS011;3921;42.266;23.122;2022-10-18T00:00:29;10.63;;;5.80;;
7753;SDS011;3921;42.266;23.122;2022-10-18T00:03:06;9.30;;;6.37;;
7753;SDS011;3921;42.266;23.122;2022-10-18T00:06:14;8.77;;;5.50;;
7753;SDS011;3921;42.266;23.122;2022-10-18T00:09:00;7.73;;;5.13;;
7753;SDS011;3921;42.266;23.122;2022-10-18T00:11:44;8.30;;;5.40;;
7753;SDS011;3921;42.266;23.122;2022-10-18T00:14:29;9.40;;;5.43;;
7753;SDS011;3921;42.266;23.122;2022-10-18T00:17:20;9.40;;;6.00;;
7753;SDS011;3921;42.266;23.122;2022-10-18T00:20:03;13.90;;;6.77;;
7753;SDS011;3921;42.266;23.122;2022-10-18T00:22:41;9.17;;;6.23;;
7753;SDS011;3921;42.266;23.122;2022-10-18T00:25:14;12.77;;;6.80;;
7753;SDS011;3921;42.266;23.122;2022-10-18T00:27:47;11.37;;;6.50;;
7753;SDS011;3921;42.266;23.122;2022-10-18T00:30:16;10.80;;;7.00;;
7753;SDS011;3921;42.266;23.122;2022-10-18T00:32:47;11.97;;;6.10;;
7753;SDS011;3921;42.266;23.122;2022-10-18T00:35:21;10.63;;;6.70;;
7753;SDS011;3921;42.266;23.122;2022-10-18T00:37:50;11.13;;;6.60;;
7753;SDS011;3921;42.266;23.122;2022-10-18T00:40:25;10.80;;;6.37;;
7753;SDS011;3921;42.266;23.122;2022-10-18T00:43:07;9.47;;;5.93;;
7753;SDS011;3921;42.266;23.122;2022-10-18T00:45:43;12.07;;;6.17;;
7753;SDS011;3921;42.266;23.122;2022-10-18T00:48:12;8.23;;;5.80;;
7753;SDS011;3921;42.266;23.122;2022-10-18T00:51:00;12.00;;;6.63;;
7753;SDS011;3921;42.266;23.122;2022-10-18T00:53:35;8.80;;;6.10;;
7753;SDS011;3921;42.266;23.122;2022-10-18T00:56:07;9.17;;;6.03;;
7753;SDS011;3921;42.266;23.122;2022-10-18T00:58:40;10.67;;;6.60;;
7753;SDS011;3921;42.266;23.122;2022-10-18T01:01:14;9.37;;;6.33;;
7753;SDS011;3921;42.266;23.122;2022-10-18T01:03:52;9.90;;;5.80;;
7753;SDS011;3921;42.266;23.122;2022-10-18T01:09:09;11.33;;;7.17;;
7753;SDS011;3921;42.266;23.122;2022-10-18T01:11:52;9.60;;;6.60;;
7753;SDS011;3921;42.266;23.122;2022-10-18T01:14:38;8.20;;;6.20;;
7753;SDS011;3921;42.266;23.122;2022-10-18T01:17:17;10.17;;;6.13;;
7753;SDS011;3921;42.266;23.122;2022-10-18T01:20:12;9.00;;;6.27;;
7753;SDS011;3921;42.266;23.122;2022-10-18T01:23:08;8.47;;;5.80;;
7753;SDS011;3921;42.266;23.122;2022-10-18T01:25:52;9.83;;;6.50;;
7753;SDS011;3921;42.266;23.122;2022-10-18T01:28:35;8.60;;;5.67;;
7753;SDS011;3921;42.266;23.122;2022-10-18T01:34:22;10.17;;;6.10;;
7753;SDS011;3921;42.266;23.122;2022-10-18T01:37:38;8.23;;;5.60;;
7753;SDS011;3921;42.266;23.122;2022-10-18T01:40:16;7.07;;;5.90;;
7753;SDS011;3921;42.266;23.122;2022-10-18T01:42:59;8.10;;;6.27;;
7753;SDS011;3921;42.266;23.122;2022-10-18T01:45:46;10.93;;;6.03;;
7753;SDS011;3921;42.266;23.122;2022-10-18T01:48:20;9.23;;;5.27;;
7753;SDS011;3921;42.266;23.122;2022-10-18T01:50:50;8.30;;;5.90;;
7753;SDS011;3921;42.266;23.122;2022-10-18T01:58:34;9.00;;;6.13;;
7753;SDS011;3921;42.266;23.122;2022-10-18T02:01:19;8.73;;;6.07;;
7753;SDS011;3921;42.266;23.122;2022-10-18T02:04:19;9.93;;;6.50;;
7753;SDS011;3921;42.266;23.122;2022-10-18T02:06:55;8.87;;;6.00;;
7753;SDS011;3921;42.266;23.122;2022-10-18T02:12:09;8.70;;;6.07;;
7753;SDS011;3921;42.266;23.122;2022-10-18T02:14:41;9.03;;;5.90;;
7753;SDS011;3921;42.266;23.122;2022-10-18T02:17:13;10.90;;;6.30;;
7753;SDS011;3921;42.266;23.122;2022-10-18T02:22:39;8.77;;;6.13;;
7753;SDS011;3921;42.266;23.122;2022-10-18T02:25:24;10.17;;;6.40;;
7753;SDS011;3921;42.266;23.122;2022-10-18T02:28:19;8.80;;;6.00;;
7753;SDS011;3921;42.266;23.122;2022-10-18T02:31:05;10.20;;;6.50;;
7753;SDS011;3921;42.266;23.122;2022-10-18T02:33:52;8.50;;;5.77;;
7753;SDS011;3921;42.266;23.122;2022-10-18T02:36:37;8.40;;;6.57;;
7753;SDS011;3921;42.266;23.122;2022-10-18T02:44:23;8.80;;;6.70;;
7753;SDS011;3921;42.266;23.122;2022-10-18T02:47:24;8.80;;;6.27;;
7753;SDS011;3921;42.266;23.122;2022-10-18T02:50:06;8.87;;;6.10;;
7753;SDS011;3921;42.266;23.122;2022-10-18T02:52:49;10.83;;;6.13;;
7753;SDS011;3921;42.266;23.122;2022-10-18T02:55:28;7.37;;;5.43;;
7753;SDS011;3921;42.266;23.122;2022-10-18T02:58:30;8.83;;;5.80;;
7753;SDS011;3921;42.266;23.122;2022-10-18T03:01:09;11.33;;;6.37;;
7753;SDS011;3921;42.266;23.122;2022-10-18T03:03:46;9.80;;;6.10;;
7753;SDS011;3921;42.266;23.122;2022-10-18T03:06:14;8.50;;;6.23;;
7753;SDS011;3921;42.266;23.122;2022-10-18T03:08:46;9.67;;;6.27;;
7753;SDS011;3921;42.266;23.122;2022-10-18T03:11:18;9.70;;;7.00;;
7753;SDS011;3921;42.266;23.122;2022-10-18T03:13:45;9.67;;;6.50;;
7753;SDS011;3921;42.266;23.122;2022-10-18T03:16:14;10.90;;;6.53;;
7753;SDS011;3921;42.266;23.122;2022-10-18T03:18:43;11.00;;;6.77;;
7753;SDS011;3921;42.266;23.122;2022-10-18T03:21:19;10.33;;;6.57;;
7753;SDS011;3921;42.266;23.122;2022-10-18T03:23:48;8.43;;;6.63;;
7753;SDS011;3921;42.266;23.122;2022-10-18T03:26:15;10.50;;;6.70;;
7753;SDS011;3921;42.266;23.122;2022-10-18T03:28:47;11.00;;;7.00;;
7753;SDS011;3921;42.266;23.122;2022-10-18T03:31:16;10.30;;;7.07;;
7753;SDS011;3921;42.266;23.122;2022-10-18T03:33:57;8.97;;;6.40;;
7753;SDS011;3921;42.266;23.122;2022-10-18T03:38:42;10.00;;;6.47;;
7753;SDS011;3921;42.266;23.122;2022-10-18T03:39:43;14.33;;;7.00;;
7753;SDS011;3921;42.266;23.122;2022-10-18T03:42:20;11.30;;;7.23;;
7753;SDS011;3921;42.266;23.122;2022-10-18T03:45:09;9.73;;;7.40;;
7753;SDS011;3921;42.266;23.122;2022-10-18T03:47:36;12.83;;;6.97;;
7753;SDS011;3921;42.266;23.122;2022-10-18T03:50:04;11.60;;;7.07;;
7753;SDS011;3921;42.266;23.122;2022-10-18T03:52:31;9.03;;;6.53;;
7753;SDS011;3921;42.266;23.122;2022-10-18T03:55:00;13.47;;;7.60;;
7753;SDS011;3921;42.266;23.122;2022-10-18T03:57:33;8.80;;;7.03;;
7753;SDS011;3921;42.266;23.122;2022-10-18T04:00:15;9.40;;;7.20;;
7753;SDS011;3921;42.266;23.122;2022-10-18T04:02:51;10.47;;;7.73;;
7753;SDS011;3921;42.266;23.122;2022-10-18T04:05:35;12.10;;;7.93;;
7753;SDS011;3921;42.266;23.122;2022-10-18T04:08:07;11.83;;;8.10;;
7753;SDS011;3921;42.266;23.122;2022-10-18T04:10:42;10.80;;;7.67;;
7753;SDS011;3921;42.266;23.122;2022-10-18T04:13:19;13.90;;;8.47;;
7753;SDS011;3921;42.266;23.122;2022-10-18T04:16:08;19.47;;;9.37;;
7753;SDS011;3921;42.266;23.122;2022-10-18T04:18:43;17.60;;;10.47;;
7753;SDS011;3921;42.266;23.122;2022-10-18T04:24:44;19.70;;;11.30;;
7753;SDS011;3921;42.266;23.122;2022-10-18T04:27:18;13.47;;;9.20;;
7753;SDS011;3921;42.266;23.122;2022-10-18T04:29:46;14.63;;;8.87;;
7753;SDS011;3921;42.266;23.122;2022-10-18T04:32:16;10.67;;;8.17;;
7753;SDS011;3921;42.266;23.122;2022-10-18T04:34:56;16.30;;;7.27;;
7753;SDS011;3921;42.266;23.122;2022-10-18T04:37:28;12.47;;;7.23;;
7753;SDS011;3921;42.266;23.122;2022-10-18T05:40:18;30.53;;;13.53;;
7753;SDS011;3921;42.266;23.122;2022-10-18T05:49:12;33.27;;;14.60;;
7753;SDS011;3921;42.266;23.122;2022-10-18T05:52:14;39.20;;;14.77;;
7753;SDS011;3921;42.266;23.122;2022-10-18T06:02:47;40.97;;;14.73;;
7753;SDS011;3921;42.266;23.122;2022-10-18T06:05:16;22.70;;;11.80;;
7753;SDS011;3921;42.266;23.122;2022-10-18T06:07:52;26.47;;;11.17;;
7753;SDS011;3921;42.266;23.122;2022-10-18T06:10:44;14.60;;;9.57;;
7753;SDS011;3921;42.266;23.122;2022-10-18T06:16:33;14.73;;;9.33;;
7753;SDS011;3921;42.266;23.122;2022-10-18T06:22:51;22.63;;;11.60;;
7753;SDS011;3921;42.266;23.122;2022-10-18T06:25:28;29.37;;;13.03;;
7753;SDS011;3921;42.266;23.122;2022-10-18T06:28:50;19.47;;;10.53;;
7753;SDS011;3921;42.266;23.122;2022-10-18T06:34:22;28.73;;;14.93;;
7753;SDS011;3921;42.266;23.122;2022-10-18T06:43:51;18.83;;;11.20;;
7753;SDS011;3921;42.266;23.122;2022-10-18T06:46:34;20.37;;;12.30;;
7753;SDS011;3921;42.266;23.122;2022-10-18T06:49:27;16.87;;;10.70;;
7753;SDS011;3921;42.266;23.122;2022-10-18T06:52:11;18.17;;;10.20;;
7753;SDS011;3921;42.266;23.122;2022-10-18T06:54:50;15.90;;;10.30;;
7753;SDS011;3921;42.266;23.122;2022-10-18T06:57:24;18.03;;;10.60;;
7753;SDS011;3921;42.266;23.122;2022-10-18T07:00:25;17.00;;;10.40;;
7753;SDS011;3921;42.266;23.122;2022-10-18T07:02:53;18.17;;;10.97;;
7753;SDS011;3921;42.266;23.122;2022-10-18T07:05:24;17.30;;;10.80;;
7753;SDS011;3921;42.266;23.122;2022-10-18T07:08:59;18.73;;;11.57;;
7753;SDS011;3921;42.266;23.122;2022-10-18T07:11:35;18.27;;;11.67;;
7753;SDS011;3921;42.266;23.122;2022-10-18T07:14:28;18.90;;;11.77;;
7753;SDS011;3921;42.266;23.122;2022-10-18T07:17:23;19.00;;;13.30;;
7753;SDS011;3921;42.266;23.122;2022-10-18T07:20:02;21.03;;;13.20;;
7753;SDS011;3921;42.266;23.122;2022-10-18T07:32:52;12.70;;;8.37;;
7753;SDS011;3921;42.266;23.122;2022-10-18T07:35:51;11.83;;;8.30;;
7753;SDS011;3921;42.266;23.122;2022-10-18T08:22:06;13.43;;;8.57;;
7753;SDS011;3921;42.266;23.122;2022-10-18T08:25:03;14.57;;;8.97;;
7753;SDS011;3921;42.266;23.122;2022-10-18T08:27:46;16.30;;;8.00;;
7753;SDS011;3921;42.266;23.122;2022-10-18T09:17:03;10.17;;;6.47;;
7753;SDS011;3921;42.266;23.122;2022-10-18T09:20:06;8.30;;;5.80;;
7753;SDS011;3921;42.266;23.122;2022-10-18T09:23:01;10.30;;;5.70;;
7753;SDS011;3921;42.266;23.122;2022-10-18T09:25:44;7.50;;;5.20;;
7753;SDS011;3921;42.266;23.122;2022-10-18T09:31:39;10.03;;;5.70;;
7753;SDS011;3921;42.266;23.122;2022-10-18T09:37:34;7.50;;;5.10;;
7753;SDS011;3921;42.266;23.122;2022-10-18T09:40:26;6.33;;;4.97;;
7753;SDS011;3921;42.266;23.122;2022-10-18T09:46:30;9.60;;;5.10;;
7753;SDS011;3921;42.266;23.122;2022-10-18T09:49:36;7.00;;;5.37;;
7753;SDS011;3921;42.266;23.122;2022-10-18T10:08:47;8.57;;;4.60;;
7753;SDS011;3921;42.266;23.122;2022-10-18T10:10:05;9.90;;;4.63;;
7753;SDS011;3921;42.266;23.122;2022-10-18T10:13:54;7.77;;;4.77;;
7753;SDS011;3921;42.266;23.122;2022-10-18T10:17:19;6.17;;;4.80;;
7753;SDS011;3921;42.266;23.122;2022-10-18T10:20:28;5.63;;;4.60;;
7753;SDS011;3921;42.266;23.122;2022-10-18T10:23:38;6.57;;;4.50;;
7753;SDS011;3921;42.266;23.122;2022-10-18T10:32:45;5.40;;;4.00;;
7753;SDS011;3921;42.266;23.122;2022-10-18T10:46:17;5.13;;;3.63;;
7753;SDS011;3921;42.266;23.122;2022-10-18T10:50:12;5.57;;;3.60;;
7753;SDS011;3921;42.266;23.122;2022-10-18T10:53:32;7.07;;;3.30;;
7753;SDS011;3921;42.266;23.122;2022-10-18T11:09:35;4.53;;;2.90;;
7753;SDS011;3921;42.266;23.122;2022-10-18T12:11:41;3.27;;;1.90;;
7753;SDS011;3921;42.266;23.122;2022-10-18T12:15:38;2.00;;;1.80;;
7753;SDS011;3921;42.266;23.122;2022-10-18T12:17:46;2.60;;;1.80;;
7753;SDS011;3921;42.266;23.122;2022-10-18T12:20:45;5.27;;;2.10;;
7753;SDS011;3921;42.266;23.122;2022-10-18T12:23:48;1.87;;;1.77;;
7753;SDS011;3921;42.266;23.122;2022-10-18T12:26:30;2.57;;;2.10;;
7753;SDS011;3921;42.266;23.122;2022-10-18T12:29:14;2.30;;;2.10;;
7753;SDS011;3921;42.266;23.122;2022-10-18T12:31:51;3.93;;;2.17;;
7753;SDS011;3921;42.266;23.122;2022-10-18T12:34:29;4.80;;;2.57;;
7753;SDS011;3921;42.266;23.122;2022-10-18T12:37:20;4.83;;;2.07;;
7753;SDS011;3921;42.266;23.122;2022-10-18T12:40:11;4.10;;;2.30;;
7753;SDS011;3921;42.266;23.122;2022-10-18T12:42:47;3.77;;;1.80;;
7753;SDS011;3921;42.266;23.122;2022-10-18T12:45:34;2.53;;;2.33;;
7753;SDS011;3921;42.266;23.122;2022-10-18T12:48:26;2.60;;;1.80;;
7753;SDS011;3921;42.266;23.122;2022-10-18T12:50:59;3.60;;;2.20;;
7753;SDS011;3921;42.266;23.122;2022-10-18T12:53:31;3.47;;;2.23;;
7753;SDS011;3921;42.266;23.122;2022-10-18T13:08:31;2.40;;;2.10;;
7753;SDS011;3921;42.266;23.122;2022-10-18T13:14:09;3.37;;;1.73;;
7753;SDS011;3921;42.266;23.122;2022-10-18T13:17:03;1.60;;;1.50;;
7753;SDS011;3921;42.266;23.122;2022-10-18T13:20:17;1.93;;;1.70;;
7753;SDS011;3921;42.266;23.122;2022-10-18T13:22:56;2.90;;;1.90;;
7753;SDS011;3921;42.266;23.122;2022-10-18T13:25:38;4.00;;;2.10;;
7753;SDS011;3921;42.266;23.122;2022-10-18T13:28:56;2.53;;;1.90;;
7753;SDS011;3921;42.266;23.122;2022-10-18T13:31:57;2.37;;;2.13;;
7753;SDS011;3921;42.266;23.122;2022-10-18T13:35:20;3.07;;;2.30;;
7753;SDS011;3921;42.266;23.122;2022-10-18T13:38:31;4.53;;;2.40;;
7753;SDS011;3921;42.266;23.122;2022-10-18T13:44:35;2.97;;;2.40;;
7753;SDS011;3921;42.266;23.122;2022-10-18T13:47:45;6.60;;;4.93;;
7753;SDS011;3921;42.266;23.122;2022-10-18T14:00:30;4.37;;;3.10;;
7753;SDS011;3921;42.266;23.122;2022-10-18T14:15:28;3.90;;;2.97;;
7753;SDS011;3921;42.266;23.122;2022-10-18T14:20:31;4.20;;;3.00;;
7753;SDS011;3921;42.266;23.122;2022-10-18T14:23:34;4.53;;;2.47;;
7753;SDS011;3921;42.266;23.122;2022-10-18T14:26:05;4.10;;;3.10;;
7753;SDS011;3921;42.266;23.122;2022-10-18T14:35:25;3.40;;;3.10;;
7753;SDS011;3921;42.266;23.122;2022-10-18T14:38:12;3.43;;;2.87;;
7753;SDS011;3921;42.266;23.122;2022-10-18T14:40:47;4.73;;;3.00;;
7753;SDS011;3921;42.266;23.122;2022-10-18T14:43:28;2.70;;;2.50;;
7753;SDS011;3921;42.266;23.122;2022-10-18T14:46:57;3.30;;;3.00;;
7753;SDS011;3921;42.266;23.122;2022-10-18T14:49:24;5.17;;;3.50;;
7753;SDS011;3921;42.266;23.122;2022-10-18T14:52:30;6.10;;;4.40;;
7753;SDS011;3921;42.266;23.122;2022-10-18T14:55:14;8.20;;;5.27;;
7753;SDS011;3921;42.266;23.122;2022-10-18T14:57:56;8.43;;;5.63;;
7753;SDS011;3921;42.266;23.122;2022-10-18T15:01:06;12.93;;;7.37;;
7753;SDS011;3921;42.266;23.122;2022-10-18T15:03:39;12.90;;;6.37;;
7753;SDS011;3921;42.266;23.122;2022-10-18T15:06:11;15.73;;;8.70;;
7753;SDS011;3921;42.266;23.122;2022-10-18T15:08:50;8.03;;;6.60;;
7753;SDS011;3921;42.266;23.122;2022-10-18T15:11:25;10.47;;;6.33;;
7753;SDS011;3921;42.266;23.122;2022-10-18T15:14:20;8.87;;;6.93;;
7753;SDS011;3921;42.266;23.122;2022-10-18T15:16:49;9.80;;;6.50;;
7753;SDS011;3921;42.266;23.122;2022-10-18T15:19:37;12.70;;;6.93;;
7753;SDS011;3921;42.266;23.122;2022-10-18T15:32:23;17.83;;;9.70;;
7753;SDS011;3921;42.266;23.122;2022-10-18T15:35:22;19.37;;;12.70;;
7753;SDS011;3921;42.266;23.122;2022-10-18T15:38:27;21.43;;;10.80;;
7753;SDS011;3921;42.266;23.122;2022-10-18T15:41:48;16.70;;;10.70;;
7753;SDS011;3921;42.266;23.122;2022-10-18T15:44:31;19.50;;;10.87;;
7753;SDS011;3921;42.266;23.122;2022-10-18T15:47:14;16.20;;;9.93;;
7753;SDS011;3921;42.266;23.122;2022-10-18T15:50:01;14.50;;;10.20;;
7753;SDS011;3921;42.266;23.122;2022-10-18T15:52:48;14.40;;;9.23;;
7753;SDS011;3921;42.266;23.122;2022-10-18T15:55:44;12.40;;;7.43;;
7753;SDS011;3921;42.266;23.122;2022-10-18T15:58:20;12.73;;;6.73;;
7753;SDS011;3921;42.266;23.122;2022-10-18T16:00:50;11.40;;;6.67;;
7753;SDS011;3921;42.266;23.122;2022-10-18T16:03:32;11.33;;;5.40;;
7753;SDS011;3921;42.266;23.122;2022-10-18T16:06:05;10.67;;;5.77;;
7753;SDS011;3921;42.266;23.122;2022-10-18T16:08:42;8.40;;;6.20;;
7753;SDS011;3921;42.266;23.122;2022-10-18T16:11:32;10.97;;;7.23;;
7753;SDS011;3921;42.266;23.122;2022-10-18T16:14:05;14.67;;;9.13;;
7753;SDS011;3921;42.266;23.122;2022-10-18T16:16:33;24.40;;;13.27;;
7753;SDS011;3921;42.266;23.122;2022-10-18T16:19:14;27.90;;;16.03;;
7753;SDS011;3921;42.266;23.122;2022-10-18T16:21:54;34.00;;;14.40;;
7753;SDS011;3921;42.266;23.122;2022-10-18T16:24:24;23.03;;;13.80;;
7753;SDS011;3921;42.266;23.122;2022-10-18T16:27:00;23.67;;;12.87;;
7753;SDS011;3921;42.266;23.122;2022-10-18T16:29:33;21.40;;;11.20;;
7753;SDS011;3921;42.266;23.122;2022-10-18T16:32:00;22.17;;;10.80;;
7753;SDS011;3921;42.266;23.122;2022-10-18T16:34:46;15.67;;;9.90;;
7753;SDS011;3921;42.266;23.122;2022-10-18T16:40:33;18.30;;;8.87;;
7753;SDS011;3921;42.266;23.122;2022-10-18T16:43:27;12.60;;;7.97;;
7753;SDS011;3921;42.266;23.122;2022-10-18T16:46:26;10.63;;;6.83;;
7753;SDS011;3921;42.266;23.122;2022-10-18T16:49:40;10.90;;;6.53;;
7753;SDS011;3921;42.266;23.122;2022-10-18T16:55:52;8.67;;;5.83;;
7753;SDS011;3921;42.266;23.122;2022-10-18T16:58:46;13.83;;;6.73;;
7753;SDS011;3921;42.266;23.122;2022-10-18T17:01:28;13.67;;;8.03;;
7753;SDS011;3921;42.266;23.122;2022-10-18T17:04:11;10.93;;;7.37;;
7753;SDS011;3921;42.266;23.122;2022-10-18T17:06:40;10.97;;;7.50;;
7753;SDS011;3921;42.266;23.122;2022-10-18T17:09:16;10.87;;;7.67;;
7753;SDS011;3921;42.266;23.122;2022-10-18T17:11:49;11.80;;;7.43;;
7753;SDS011;3921;42.266;23.122;2022-10-18T17:14:16;12.87;;;6.67;;
7753;SDS011;3921;42.266;23.122;2022-10-18T17:16:55;12.83;;;7.20;;
7753;SDS011;3921;42.266;23.122;2022-10-18T17:22:35;13.30;;;7.70;;
7753;SDS011;3921;42.266;23.122;2022-10-18T17:28:17;14.37;;;7.63;;
7753;SDS011;3921;42.266;23.122;2022-10-18T17:37:46;15.13;;;8.00;;
7753;SDS011;3921;42.266;23.122;2022-10-18T17:40:14;17.77;;;8.80;;
7753;SDS011;3921;42.266;23.122;2022-10-18T17:43:06;13.30;;;7.30;;
7753;SDS011;3921;42.266;23.122;2022-10-18T17:46:02;13.57;;;8.07;;
7753;SDS011;3921;42.266;23.122;2022-10-18T17:48:57;13.63;;;8.67;;
7753;SDS011;3921;42.266;23.122;2022-10-18T17:51:42;17.07;;;9.17;;
7753;SDS011;3921;42.266;23.122;2022-10-18T17:54:17;13.80;;;8.63;;
7753;SDS011;3921;42.266;23.122;2022-10-18T17:57:07;11.87;;;7.53;;
7753;SDS011;3921;42.266;23.122;2022-10-18T17:59:49;11.67;;;7.80;;
7753;SDS011;3921;42.266;23.122;2022-10-18T18:02:25;16.07;;;10.57;;
7753;SDS011;3921;42.266;23.122;2022-10-18T18:05:06;21.80;;;12.23;;
7753;SDS011;3921;42.266;23.122;2022-10-18T18:07:38;22.17;;;13.27;;
7753;SDS011;3921;42.266;23.122;2022-10-18T18:10:14;23.60;;;11.77;;
7753;SDS011;3921;42.266;23.122;2022-10-18T18:12:52;17.73;;;10.73;;
7753;SDS011;3921;42.266;23.122;2022-10-18T18:15:23;16.93;;;10.57;;
7753;SDS011;3921;42.266;23.122;2022-10-18T18:17:57;16.13;;;10.10;;
7753;SDS011;3921;42.266;23.122;2022-10-18T18:20:27;20.47;;;10.47;;
7753;SDS011;3921;42.266;23.122;2022-10-18T18:22:58;14.03;;;9.60;;
7753;SDS011;3921;42.266;23.122;2022-10-18T18:25:43;18.87;;;10.67;;
7753;SDS011;3921;42.266;23.122;2022-10-18T18:28:22;17.43;;;10.27;;
7753;SDS011;3921;42.266;23.122;2022-10-18T18:31:07;16.40;;;10.30;;
7753;SDS011;3921;42.266;23.122;2022-10-18T18:34:24;21.97;;;11.07;;
7753;SDS011;3921;42.266;23.122;2022-10-18T18:36:53;15.90;;;10.33;;
7753;SDS011;3921;42.266;23.122;2022-10-18T18:39:21;15.47;;;9.73;;
7753;SDS011;3921;42.266;23.122;2022-10-18T18:42:20;16.03;;;10.37;;
7753;SDS011;3921;42.266;23.122;2022-10-18T18:44:49;16.87;;;10.13;;
7753;SDS011;3921;42.266;23.122;2022-10-18T18:50:47;19.70;;;10.30;;
7753;SDS011;3921;42.266;23.122;2022-10-18T18:53:30;24.40;;;12.93;;
7753;SDS011;3921;42.266;23.122;2022-10-18T18:56:04;25.87;;;13.87;;
7753;SDS011;3921;42.266;23.122;2022-10-18T18:58:33;25.27;;;13.80;;
7753;SDS011;3921;42.266;23.122;2022-10-18T19:01:33;19.10;;;10.13;;
7753;SDS011;3921;42.266;23.122;2022-10-18T19:04:26;17.60;;;9.97;;
7753;SDS011;3921;42.266;23.122;2022-10-18T19:10:33;21.50;;;11.73;;
7753;SDS011;3921;42.266;23.122;2022-10-18T19:13:13;19.40;;;12.03;;
7753;SDS011;3921;42.266;23.122;2022-10-18T19:19:09;18.23;;;10.47;;
7753;SDS011;3921;42.266;23.122;2022-10-18T19:22:42;17.83;;;10.43;;
7753;SDS011;3921;42.266;23.122;2022-10-18T19:25:59;17.57;;;10.60;;
7753;SDS011;3921;42.266;23.122;2022-10-18T19:31:57;22.03;;;12.93;;
7753;SDS011;3921;42.266;23.122;2022-10-18T19:34:43;19.17;;;10.33;;
7753;SDS011;3921;42.266;23.122;2022-10-18T19:37:13;19.57;;;11.60;;
7753;SDS011;3921;42.266;23.122;2022-10-18T19:39:44;20.23;;;12.23;;
7753;SDS011;3921;42.266;23.122;2022-10-18T19:42:12;20.03;;;11.87;;
7753;SDS011;3921;42.266;23.122;2022-10-18T19:44:45;20.63;;;12.80;;
7753;SDS011;3921;42.266;23.122;2022-10-18T19:47:19;19.63;;;11.17;;
7753;SDS011;3921;42.266;23.122;2022-10-18T19:49:54;16.80;;;11.13;;
7753;SDS011;3921;42.266;23.122;2022-10-18T19:52:46;19.57;;;11.07;;
7753;SDS011;3921;42.266;23.122;2022-10-18T19:55:43;16.40;;;10.30;;
7753;SDS011;3921;42.266;23.122;2022-10-18T19:58:17;19.27;;;9.83;;
7753;SDS011;3921;42.266;23.122;2022-10-18T20:01:04;16.97;;;9.47;;
7753;SDS011;3921;42.266;23.122;2022-10-18T20:03:32;18.60;;;10.10;;
7753;SDS011;3921;42.266;23.122;2022-10-18T20:06:00;15.43;;;10.23;;
7753;SDS011;3921;42.266;23.122;2022-10-18T20:08:29;18.13;;;9.93;;
7753;SDS011;3921;42.266;23.122;2022-10-18T20:10:59;18.37;;;10.43;;
7753;SDS011;3921;42.266;23.122;2022-10-18T20:13:28;20.00;;;11.03;;
7753;SDS011;3921;42.266;23.122;2022-10-18T20:15:55;17.83;;;11.60;;
7753;SDS011;3921;42.266;23.122;2022-10-18T20:18:38;24.47;;;12.60;;
7753;SDS011;3921;42.266;23.122;2022-10-18T20:21:22;21.23;;;12.17;;
7753;SDS011;3921;42.266;23.122;2022-10-18T20:23:57;19.37;;;11.90;;
7753;SDS011;3921;42.266;23.122;2022-10-18T20:26:24;19.27;;;10.60;;
7753;SDS011;3921;42.266;23.122;2022-10-18T20:28:51;15.60;;;9.73;;
7753;SDS011;3921;42.266;23.122;2022-10-18T20:31:22;16.27;;;10.10;;
7753;SDS011;3921;42.266;23.122;2022-10-18T20:33:53;14.93;;;9.80;;
7753;SDS011;3921;42.266;23.122;2022-10-18T20:36:22;16.40;;;10.10;;
7753;SDS011;3921;42.266;23.122;2022-10-18T20:38:50;14.67;;;9.37;;
7753;SDS011;3921;42.266;23.122;2022-10-18T20:41:18;17.77;;;10.00;;
7753;SDS011;3921;42.266;23.122;2022-10-18T20:43:49;16.97;;;10.23;;
7753;SDS011;3921;42.266;23.122;2022-10-18T20:46:16;17.70;;;10.37;;
7753;SDS011;3921;42.266;23.122;2022-10-18T20:48:47;16.60;;;9.90;;
7753;SDS011;3921;42.266;23.122;2022-10-18T20:51:16;14.90;;;9.53;;
7753;SDS011;3921;42.266;23.122;2022-10-18T20:53:43;12.73;;;8.47;;
7753;SDS011;3921;42.266;23.122;2022-10-18T20:56:15;12.97;;;8.90;;
7753;SDS011;3921;42.266;23.122;2022-10-18T20:58:44;14.23;;;9.77;;
7753;SDS011;3921;42.266;23.122;2022-10-18T21:01:23;18.37;;;10.07;;
7753;SDS011;3921;42.266;23.122;2022-10-18T21:03:55;16.70;;;9.40;;
7753;SDS011;3921;42.266;23.122;2022-10-18T21:06:27;18.50;;;10.20;;
7753;SDS011;3921;42.266;23.122;2022-10-18T21:08:57;16.00;;;9.47;;
7753;SDS011;3921;42.266;23.122;2022-10-18T21:11:27;18.30;;;10.43;;
7753;SDS011;3921;42.266;23.122;2022-10-18T21:13:58;16.13;;;10.67;;
7753;SDS011;3921;42.266;23.122;2022-10-18T21:16:26;17.57;;;9.97;;
7753;SDS011;3921;42.266;23.122;2022-10-18T21:18:55;17.93;;;10.87;;
7753;SDS011;3921;42.266;23.122;2022-10-18T21:24:28;15.80;;;10.10;;
7753;SDS011;3921;42.266;23.122;2022-10-18T21:27:04;16.37;;;9.13;;
7753;SDS011;3921;42.266;23.122;2022-10-18T21:29:36;14.43;;;8.63;;
7753;SDS011;3921;42.266;23.122;2022-10-18T21:32:04;18.13;;;8.50;;
7753;SDS011;3921;42.266;23.122;2022-10-18T21:34:31;10.83;;;6.33;;
7753;SDS011;3921;42.266;23.122;2022-10-18T21:37:00;11.43;;;7.07;;
7753;SDS011;3921;42.266;23.122;2022-10-18T21:39:27;13.23;;;7.67;;
7753;SDS011;3921;42.266;23.122;2022-10-18T21:42:22;10.07;;;6.80;;
7753;SDS011;3921;42.266;23.122;2022-10-18T21:45:25;11.43;;;6.73;;
7753;SDS011;3921;42.266;23.122;2022-10-18T21:48:03;12.07;;;7.00;;
7753;SDS011;3921;42.266;23.122;2022-10-18T21:50:34;13.03;;;7.73;;
7753;SDS011;3921;42.266;23.122;2022-10-18T21:53:05;14.80;;;8.53;;
7753;SDS011;3921;42.266;23.122;2022-10-18T21:55:34;13.67;;;9.33;;
7753;SDS011;3921;42.266;23.122;2022-10-18T21:58:01;15.13;;;8.43;;
7753;SDS011;3921;42.266;23.122;2022-10-18T22:00:28;14.60;;;8.77;;
7753;SDS011;3921;42.266;23.122;2022-10-18T22:03:19;13.47;;;8.50;;
7753;SDS011;3921;42.266;23.122;2022-10-18T22:05:55;15.50;;;8.30;;
7753;SDS011;3921;42.266;23.122;2022-10-18T22:08:26;14.73;;;7.30;;
7753;SDS011;3921;42.266;23.122;2022-10-18T22:10:54;11.57;;;7.10;;
7753;SDS011;3921;42.266;23.122;2022-10-18T22:13:25;13.07;;;7.07;;
7753;SDS011;3921;42.266;23.122;2022-10-18T22:15:53;9.53;;;6.60;;
7753;SDS011;3921;42.266;23.122;2022-10-18T22:18:26;10.73;;;6.00;;
7753;SDS011;3921;42.266;23.122;2022-10-18T22:20:56;9.63;;;5.47;;
7753;SDS011;3921;42.266;23.122;2022-10-18T22:23:31;7.47;;;5.47;;
7753;SDS011;3921;42.266;23.122;2022-10-18T22:26:04;10.27;;;5.50;;
7753;SDS011;3921;42.266;23.122;2022-10-18T22:28:36;9.97;;;5.90;;
7753;SDS011;3921;42.266;23.122;2022-10-18T22:31:04;8.13;;;5.70;;
7753;SDS011;3921;42.266;23.122;2022-10-18T22:33:36;8.80;;;5.80;;
7753;SDS011;3921;42.266;23.122;2022-10-18T22:36:03;11.67;;;6.23;;
7753;SDS011;3921;42.266;23.122;2022-10-18T22:38:35;11.87;;;6.93;;
7753;SDS011;3921;42.266;23.122;2022-10-18T22:41:04;12.43;;;7.80;;
7753;SDS011;3921;42.266;23.122;2022-10-18T22:43:38;16.13;;;7.40;;
7753;SDS011;3921;42.266;23.122;2022-10-18T22:46:09;15.67;;;7.93;;
7753;SDS011;3921;42.266;23.122;2022-10-18T22:48:41;12.53;;;7.03;;
7753;SDS011;3921;42.266;23.122;2022-10-18T22:51:09;14.33;;;7.93;;
7753;SDS011;3921;42.266;23.122;2022-10-18T22:53:37;15.70;;;8.27;;
7753;SDS011;3921;42.266;23.122;2022-10-18T22:56:05;17.13;;;8.80;;
7753;SDS011;3921;42.266;23.122;2022-10-18T22:58:33;16.23;;;9.03;;
7753;SDS011;3921;42.266;23.122;2022-10-18T23:01:00;17.00;;;8.47;;
7753;SDS011;3921;42.266;23.122;2022-10-18T23:03:33;13.17;;;7.90;;
7753;SDS011;3921;42.266;23.122;2022-10-18T23:06:03;16.23;;;8.53;;
7753;SDS011;3921;42.266;23.122;2022-10-18T23:08:32;11.73;;;7.77;;
7753;SDS011;3921;42.266;23.122;2022-10-18T23:11:00;13.57;;;8.13;;
7753;SDS011;3921;42.266;23.122;2022-10-18T23:13:27;15.33;;;8.67;;
7753;SDS011;3921;42.266;23.122;2022-10-18T23:15:59;18.17;;;9.40;;
7753;SDS011;3921;42.266;23.122;2022-10-18T23:18:30;19.10;;;9.43;;